Time;durP1;ratioP1;P1;durP2;ratioP2;P2;SDS_P1;SDS_P2;PMS_P1;PMS_P2;Temp;Humidity;BMP_temperature;BMP_pressure;BME280_temperature;BME280_humidity;BME280_pressure;Samples;Min_cycle;Max_cycle;Signal;HPM_P1;HPM_P2
2021/12/19 00:00:15;;;;;;;48.90;22.77;;;1.50;99.90;;;;;;5007296;28;20213;-76
2021/12/19 00:10:45;;;;;;;52.75;23.20;;;1.40;99.90;;;;;;5025553;28;20206;-77
2021/12/19 00:13:12;;;;;;;54.43;23.93;;;1.40;99.90;;;;;;5025137;28;20220;-77
2021/12/19 00:15:38;;;;;;;61.28;25.40;;;1.30;99.90;;;;;;5017316;28;20432;-76
2021/12/19 00:18:04;;;;;;;50.00;23.17;;;1.30;99.90;;;;;;5008474;28;20201;-77
2021/12/19 00:20:29;;;;;;;53.27;23.00;;;1.40;99.90;;;;;;5008760;28;20191;-77
2021/12/19 00:22:55;;;;;;;60.83;23.03;;;1.30;99.90;;;;;;5008714;28;20190;-77
2021/12/19 00:25:20;;;;;;;54.67;22.77;;;1.30;99.90;;;;;;5008440;28;20209;-76
2021/12/19 00:27:46;;;;;;;59.23;24.87;;;1.30;99.90;;;;;;5006825;28;20259;-77
2021/12/19 00:30:12;;;;;;;62.30;25.03;;;1.30;99.90;;;;;;5006832;28;20196;-77
2021/12/19 00:32:40;;;;;;;60.60;25.73;;;1.30;99.90;;;;;;5008178;28;20697;-77
2021/12/19 00:35:06;;;;;;;57.80;24.73;;;1.30;99.90;;;;;;5008229;28;20179;-76
2021/12/19 00:37:32;;;;;;;60.22;25.65;;;1.20;99.90;;;;;;5006731;28;20645;-76
2021/12/19 00:39:57;;;;;;;71.60;25.30;;;1.20;99.90;;;;;;5008287;28;20182;-77
2021/12/19 00:42:33;;;;;;;66.80;25.73;;;1.20;99.90;;;;;;5011014;28;20265;-76
2021/12/19 00:45:02;;;;;;;65.50;26.38;;;1.20;99.90;;;;;;5012026;28;20185;-76
2021/12/19 00:47:28;;;;;;;75.82;26.88;;;1.20;99.90;;;;;;5011678;28;20228;-77
2021/12/19 00:49:55;;;;;;;67.95;27.40;;;1.10;99.90;;;;;;5026697;28;20209;-77
2021/12/19 00:52:21;;;;;;;66.05;25.40;;;1.20;99.90;;;;;;5010282;28;20189;-76
2021/12/19 00:54:47;;;;;;;63.47;25.73;;;1.20;99.90;;;;;;5010602;28;20181;-77
2021/12/19 00:57:12;;;;;;;54.17;24.60;;;1.30;99.90;;;;;;5011503;28;20285;-77
2021/12/19 00:59:38;;;;;;;55.50;24.03;;;1.30;99.90;;;;;;5026340;28;20558;-77
2021/12/19 01:02:04;;;;;;;59.60;26.13;;;1.30;99.90;;;;;;5011461;28;20188;-77
2021/12/19 01:04:29;;;;;;;63.07;24.43;;;1.30;99.90;;;;;;5027738;28;20526;-77
2021/12/19 01:06:59;;;;;;;65.07;26.50;;;1.30;99.90;;;;;;5011735;28;20448;-77
2021/12/19 01:09:25;;;;;;;55.08;23.95;;;1.30;99.90;;;;;;5011699;28;20191;-77
2021/12/19 01:11:51;;;;;;;60.90;25.10;;;1.30;99.90;;;;;;5011488;28;20198;-77
2021/12/19 01:14:17;;;;;;;62.00;24.53;;;1.20;99.90;;;;;;5010188;28;20210;-76
2021/12/19 01:16:43;;;;;;;60.00;24.73;;;1.20;99.90;;;;;;5011564;28;20265;-76
2021/12/19 01:19:09;;;;;;;58.90;24.37;;;1.20;99.90;;;;;;5011937;28;20210;-77
2021/12/19 01:21:35;;;;;;;69.50;26.52;;;1.30;99.90;;;;;;5011814;28;20192;-76
2021/12/19 01:24:00;;;;;;;70.77;26.33;;;1.20;99.90;;;;;;5012115;28;20197;-76
2021/12/19 01:26:26;;;;;;;65.40;26.17;;;1.20;99.90;;;;;;5011947;28;20213;-77
2021/12/19 01:28:51;;;;;;;66.13;25.27;;;1.20;99.90;;;;;;5010827;28;20187;-76
2021/12/19 01:31:17;;;;;;;69.37;26.20;;;1.30;99.90;;;;;;5010548;28;20654;-76
2021/12/19 01:33:43;;;;;;;67.80;25.00;;;1.30;99.90;;;;;;5011497;28;20302;-76
2021/12/19 01:36:09;;;;;;;71.07;26.70;;;1.30;99.90;;;;;;4993679;28;20236;-76
2021/12/19 01:38:38;;;;;;;70.57;26.40;;;1.20;99.90;;;;;;5011327;28;20204;-77
2021/12/19 01:41:04;;;;;;;60.47;24.10;;;1.20;99.90;;;;;;5011245;28;20420;-77
2021/12/19 01:43:31;;;;;;;77.43;27.20;;;1.10;99.90;;;;;;5011612;28;20247;-77
2021/12/19 01:45:57;;;;;;;74.20;28.02;;;1.10;99.90;;;;;;5011026;28;20190;-76
2021/12/19 01:48:24;;;;;;;90.03;27.75;;;1.10;99.90;;;;;;5011259;28;20204;-77
2021/12/19 01:50:50;;;;;;;81.63;28.73;;;1.10;99.90;;;;;;5011072;28;20272;-77
2021/12/19 01:53:16;;;;;;;81.13;29.70;;;1.20;99.90;;;;;;5009421;28;20794;-78
2021/12/19 01:55:43;;;;;;;72.45;27.42;;;1.20;99.90;;;;;;5026639;28;20198;-77
2021/12/19 01:58:10;;;;;;;86.05;30.17;;;1.20;99.90;;;;;;5009745;28;20724;-77
2021/12/19 02:00:43;;;;;;;84.35;27.83;;;1.20;99.90;;;;;;5011262;28;20181;-78
2021/12/19 02:03:10;;;;;;;86.45;30.17;;;1.20;99.90;;;;;;5009453;28;20204;-77
2021/12/19 02:05:37;;;;;;;74.20;26.10;;;1.20;99.90;;;;;;5010523;28;20186;-77
2021/12/19 02:08:04;;;;;;;75.80;28.13;;;1.20;99.90;;;;;;5010400;28;20215;-77
2021/12/19 02:10:32;;;;;;;76.75;27.23;;;1.30;99.90;;;;;;5010350;28;20533;-77
2021/12/19 02:12:59;;;;;;;72.05;28.25;;;1.30;99.90;;;;;;5010322;28;20247;-77
2021/12/19 02:15:27;;;;;;;95.47;31.77;;;1.30;99.90;;;;;;5010382;28;20188;-77
2021/12/19 02:17:56;;;;;;;82.32;28.63;;;1.30;99.90;;;;;;5009000;28;20208;-77
2021/12/19 02:20:22;;;;;;;77.70;28.88;;;1.30;99.90;;;;;;5008999;28;20174;-78
2021/12/19 02:22:49;;;;;;;99.85;32.08;;;1.30;99.90;;;;;;5009093;28;20561;-77
2021/12/19 02:25:15;;;;;;;77.85;29.45;;;1.40;99.90;;;;;;5010048;28;20183;-77
2021/12/19 02:27:42;;;;;;;75.32;28.75;;;1.40;99.90;;;;;;5010247;28;20207;-77
2021/12/19 02:30:09;;;;;;;76.00;29.60;;;1.40;99.90;;;;;;5010429;28;20201;-77
2021/12/19 02:32:37;;;;;;;83.10;27.65;;;1.40;99.90;;;;;;5008477;28;20203;-77
2021/12/19 02:35:11;;;;;;;97.57;30.15;;;1.50;99.90;;;;;;5024982;28;20593;-77
2021/12/19 02:48:14;;;;;;;86.45;28.92;;;1.50;99.90;;;;;;5010846;28;20251;-77
2021/12/19 02:50:52;;;;;;;92.70;30.00;;;1.50;99.90;;;;;;5026133;28;20210;-78
2021/12/19 02:53:32;;;;;;;83.38;31.75;;;1.50;99.90;;;;;;5010461;28;20285;-77
2021/12/19 02:56:01;;;;;;;118.82;35.38;;;1.50;99.90;;;;;;5010821;28;20257;-77
2021/12/19 02:58:28;;;;;;;71.15;27.60;;;1.50;99.90;;;;;;5009539;28;20228;-77
2021/12/19 03:00:53;;;;;;;86.50;30.75;;;1.50;99.90;;;;;;5009750;28;20178;-77
2021/12/19 03:03:19;;;;;;;148.93;32.60;;;1.50;99.90;;;;;;5008605;28;20196;-77
2021/12/19 03:05:45;;;;;;;108.80;30.73;;;1.40;99.90;;;;;;5009220;28;20190;-77
2021/12/19 03:08:11;;;;;;;129.00;33.53;;;1.30;99.90;;;;;;5009405;28;20209;-75
2021/12/19 03:18:50;;;;;;;96.53;33.22;;;1.20;99.90;;;;;;5009549;28;20200;-77
2021/12/19 03:21:17;;;;;;;186.77;34.22;;;1.20;99.90;;;;;;5024220;28;20192;-77
2021/12/19 03:23:44;;;;;;;113.75;31.70;;;1.20;99.90;;;;;;5009848;28;20567;-77
2021/12/19 03:26:10;;;;;;;93.97;30.63;;;1.20;99.90;;;;;;5007854;28;20276;-76
2021/12/19 03:28:36;;;;;;;102.45;32.13;;;1.20;99.90;;;;;;5009279;28;20555;-77
2021/12/19 03:31:02;;;;;;;99.23;32.00;;;1.30;99.90;;;;;;5024012;28;20285;-77
2021/12/19 03:33:29;;;;;;;102.03;31.85;;;1.40;99.90;;;;;;5023822;28;20366;-77
2021/12/19 03:35:54;;;;;;;91.93;31.20;;;1.40;99.90;;;;;;5008899;28;20273;-77
2021/12/19 03:38:20;;;;;;;139.23;33.30;;;1.40;99.90;;;;;;5007440;28;20723;-76
2021/12/19 03:40:53;;;;;;;92.37;29.63;;;1.40;99.90;;;;;;5007315;28;20193;-76
2021/12/19 03:43:23;;;;;;;97.28;31.17;;;1.50;99.90;;;;;;5008999;28;20177;-77
2021/12/19 03:45:49;;;;;;;92.35;29.40;;;1.40;99.90;;;;;;5007241;28;20206;-77
2021/12/19 03:48:16;;;;;;;76.05;29.17;;;1.50;99.90;;;;;;5008535;28;20207;-76
2021/12/19 03:50:46;;;;;;;99.55;32.50;;;1.50;99.90;;;;;;5008706;28;20205;-76
2021/12/19 03:53:13;;;;;;;95.25;29.88;;;1.40;99.90;;;;;;5023994;28;20206;-76
2021/12/19 03:55:40;;;;;;;91.28;31.92;;;1.40;99.90;;;;;;5007199;28;20196;-76
2021/12/19 03:58:05;;;;;;;90.60;32.33;;;1.40;99.90;;;;;;5008863;28;20206;-76
2021/12/19 04:00:32;;;;;;;160.73;31.90;;;1.50;99.90;;;;;;5007422;28;20241;-77
2021/12/19 04:03:00;;;;;;;153.23;33.78;;;1.40;99.90;;;;;;5008875;28;20251;-78
2021/12/19 04:05:27;;;;;;;125.75;32.67;;;1.30;99.90;;;;;;5024606;28;20389;-77
2021/12/19 04:07:53;;;;;;;400.60;81.93;;;1.30;99.90;;;;;;5008773;28;20258;-76
2021/12/19 04:10:21;;;;;;;135.68;37.42;;;1.20;99.90;;;;;;5008679;28;20217;-75
2021/12/19 04:12:47;;;;;;;151.00;32.13;;;1.20;99.90;;;;;;5008548;28;20211;-75
2021/12/19 04:15:14;;;;;;;87.20;30.00;;;1.30;99.90;;;;;;5008670;28;20678;-75
2021/12/19 04:17:40;;;;;;;85.95;29.92;;;1.30;99.90;;;;;;5007968;28;20207;-75
2021/12/19 04:20:06;;;;;;;102.20;28.50;;;1.40;99.90;;;;;;5008551;28;20194;-76
2021/12/19 04:22:32;;;;;;;85.43;28.10;;;1.40;99.90;;;;;;5008497;28;20175;-77
2021/12/19 04:24:57;;;;;;;84.13;26.60;;;1.40;99.90;;;;;;5008610;28;20285;-76
2021/12/19 04:27:24;;;;;;;145.17;28.10;;;1.40;99.90;;;;;;5009611;28;20648;-77
2021/12/19 04:29:50;;;;;;;143.55;27.65;;;1.40;99.90;;;;;;5008340;28;20650;-77
2021/12/19 04:32:18;;;;;;;188.68;28.50;;;1.30;99.90;;;;;;5023226;28;20227;-77
2021/12/19 04:34:44;;;;;;;313.98;30.60;;;1.00;99.90;;;;;;5008105;28;20304;-76
2021/12/19 04:51:22;;;;;;;139.93;27.17;;;0.90;99.90;;;;;;5009012;28;20689;-76
2021/12/19 05:01:36;;;;;;;238.77;28.75;;;1.00;99.90;;;;;;5008772;28;20586;-77
2021/12/19 05:04:09;;;;;;;167.68;27.15;;;1.00;99.90;;;;;;5009349;28;20187;-78
2021/12/19 05:14:34;;;;;;;116.85;26.75;;;1.10;99.90;;;;;;5006885;28;20233;-76
2021/12/19 05:17:05;;;;;;;167.75;27.60;;;1.00;99.90;;;;;;4991079;28;20247;-76
2021/12/19 05:19:47;;;;;;;131.43;28.60;;;1.20;99.90;;;;;;5007885;28;20566;-76
2021/12/19 05:22:13;;;;;;;120.28;27.15;;;1.20;99.90;;;;;;5007046;28;20189;-76
2021/12/19 05:24:47;;;;;;;110.88;27.17;;;1.20;99.90;;;;;;5008266;28;20264;-76
2021/12/19 05:27:13;;;;;;;240.60;32.05;;;1.30;99.90;;;;;;5008237;28;20285;-78
2021/12/19 05:29:40;;;;;;;97.53;27.23;;;1.30;99.90;;;;;;5011293;28;20195;-77
2021/12/19 05:32:07;;;;;;;133.05;27.50;;;1.30;99.90;;;;;;5012107;28;20189;-78
2021/12/19 05:34:33;;;;;;;124.82;27.77;;;1.30;99.90;;;;;;5011983;28;20219;-75
2021/12/19 05:45:13;;;;;;;92.38;24.60;;;1.30;99.90;;;;;;4997264;28;20684;-76
2021/12/19 05:47:40;;;;;;;106.07;25.13;;;1.30;99.90;;;;;;5012456;28;20256;-78
2021/12/19 05:50:06;;;;;;;131.90;28.77;;;1.30;99.90;;;;;;5011843;28;20196;-76
2021/12/19 05:52:32;;;;;;;107.97;29.05;;;1.30;99.90;;;;;;5010986;28;20199;-76
2021/12/19 05:54:57;;;;;;;166.10;28.23;;;1.30;99.90;;;;;;5011848;28;20187;-73
2021/12/19 05:57:23;;;;;;;111.93;26.37;;;1.30;99.90;;;;;;5011768;28;20284;-78
2021/12/19 05:59:50;;;;;;;141.43;25.80;;;1.30;99.90;;;;;;5012613;28;20197;-77
2021/12/19 06:02:16;;;;;;;130.05;26.88;;;1.30;99.90;;;;;;5026611;28;20432;-76
2021/12/19 06:04:42;;;;;;;192.88;29.92;;;1.20;99.90;;;;;;5011667;28;20181;-77
2021/12/19 06:07:08;;;;;;;221.35;28.90;;;1.20;99.90;;;;;;5011599;28;20273;-77
2021/12/19 06:09:34;;;;;;;114.93;26.90;;;1.20;99.90;;;;;;5011717;28;20605;-74
2021/12/19 06:11:59;;;;;;;238.13;28.60;;;1.20;99.90;;;;;;5012020;28;20197;-77
2021/12/19 06:14:31;;;;;;;172.83;26.60;;;1.20;99.90;;;;;;5010319;28;20218;-75
2021/12/19 06:16:57;;;;;;;81.63;24.50;;;1.30;99.90;;;;;;5010814;28;20210;-75
2021/12/19 06:19:22;;;;;;;150.93;25.47;;;1.30;99.90;;;;;;5011126;28;20184;-74
2021/12/19 06:21:48;;;;;;;97.57;24.47;;;1.20;99.90;;;;;;5010913;28;20190;-73
2021/12/19 06:24:13;;;;;;;177.97;26.37;;;1.20;99.90;;;;;;5010871;28;20191;-76
2021/12/19 06:26:39;;;;;;;127.10;23.23;;;1.20;99.90;;;;;;5010771;28;20709;-75
2021/12/19 06:29:05;;;;;;;90.17;22.00;;;1.20;99.90;;;;;;5009318;28;20192;-75
2021/12/19 06:31:30;;;;;;;122.80;22.73;;;1.20;99.90;;;;;;5008915;28;20189;-74
2021/12/19 06:33:56;;;;;;;107.97;22.40;;;1.40;99.90;;;;;;5010540;28;20209;-76
2021/12/19 06:36:22;;;;;;;84.73;21.43;;;1.20;99.90;;;;;;5009108;28;20209;-74
2021/12/19 06:38:48;;;;;;;152.40;23.25;;;1.30;99.90;;;;;;5010094;28;20190;-74
2021/12/19 06:41:14;;;;;;;85.70;19.60;;;1.30;99.90;;;;;;5010499;28;20643;-74
2021/12/19 06:43:39;;;;;;;288.00;27.37;;;1.30;99.90;;;;;;5009211;28;20686;-77
2021/12/19 06:46:05;;;;;;;68.23;20.27;;;1.20;99.90;;;;;;5009150;28;20241;-78
2021/12/19 06:48:31;;;;;;;76.03;21.60;;;1.20;99.90;;;;;;5025631;28;20574;-78
2021/12/19 06:50:57;;;;;;;66.50;19.33;;;1.10;99.90;;;;;;5010369;28;20607;-78
2021/12/19 06:53:22;;;;;;;167.90;22.35;;;1.20;99.90;;;;;;5009122;28;20862;-78
2021/12/19 06:55:48;;;;;;;61.47;20.53;;;1.20;99.90;;;;;;5009094;28;20201;-78
2021/12/19 06:58:14;;;;;;;57.95;18.95;;;1.20;99.90;;;;;;5010869;28;20610;-78
2021/12/19 07:00:40;;;;;;;258.20;23.30;;;1.20;99.90;;;;;;5010917;28;20265;-78
2021/12/19 07:03:06;;;;;;;92.70;19.27;;;1.00;99.90;;;;;;5009205;28;20432;-77
2021/12/19 07:05:32;;;;;;;150.23;19.60;;;0.90;99.90;;;;;;5010376;28;20185;-76
2021/12/19 07:07:57;;;;;;;111.03;19.57;;;0.80;99.90;;;;;;5010366;28;20288;-77
2021/12/19 07:10:23;;;;;;;176.83;21.07;;;0.70;99.90;;;;;;5010432;28;20192;-77
2021/12/19 07:12:49;;;;;;;105.47;21.87;;;0.60;99.90;;;;;;5010530;28;20186;-77
2021/12/19 07:15:15;;;;;;;239.30;22.73;;;0.60;99.90;;;;;;5010103;28;20658;-77
2021/12/19 07:17:40;;;;;;;83.20;18.93;;;0.50;99.90;;;;;;5010638;28;20225;-77
2021/12/19 07:20:07;;;;;;;87.27;16.93;;;0.60;99.90;;;;;;5009138;28;20452;-77
2021/12/19 07:22:33;;;;;;;87.78;17.92;;;0.70;99.90;;;;;;5009196;28;20287;-76
2021/12/19 07:24:59;;;;;;;87.50;19.90;;;0.80;99.90;;;;;;5026231;28;20191;-78
2021/12/19 07:27:24;;;;;;;79.97;19.03;;;0.90;99.90;;;;;;5012336;28;20210;-78
2021/12/19 07:29:50;;;;;;;68.00;18.00;;;0.90;99.90;;;;;;5012588;28;20180;-78
2021/12/19 07:32:16;;;;;;;152.93;22.00;;;0.90;99.90;;;;;;5012658;28;20250;-78
2021/12/19 07:34:43;;;;;;;97.57;18.50;;;1.00;99.90;;;;;;5012151;28;20213;-78
2021/12/19 07:37:09;;;;;;;81.35;18.88;;;0.90;99.90;;;;;;5011192;28;20810;-78
2021/12/19 07:42:06;;;;;;;115.83;20.97;;;1.00;99.90;;;;;;5011728;28;20177;-77
2021/12/19 07:44:32;;;;;;;61.25;17.00;;;1.00;99.90;;;;;;5011185;28;20284;-78
2021/12/19 07:46:57;;;;;;;73.80;16.42;;;1.00;99.90;;;;;;5010760;28;20217;-79
2021/12/19 07:49:23;;;;;;;100.40;22.90;;;1.10;99.90;;;;;;5012251;28;20196;-78
2021/12/19 07:51:49;;;;;;;228.20;25.77;;;1.00;99.90;;;;;;5011387;28;20202;-78
2021/12/19 07:54:14;;;;;;;128.10;18.20;;;1.00;99.90;;;;;;5011878;28;20204;-78
2021/12/19 07:56:40;;;;;;;119.73;19.10;;;1.00;99.90;;;;;;5010845;28;20204;-78
2021/12/19 07:59:06;;;;;;;106.23;19.60;;;1.00;99.90;;;;;;5011898;28;20212;-78
2021/12/19 08:01:33;;;;;;;83.78;17.92;;;1.00;99.90;;;;;;5011901;28;20180;-78
2021/12/19 08:03:58;;;;;;;113.95;19.30;;;1.20;99.90;;;;;;5010849;28;20569;-78
2021/12/19 08:06:24;;;;;;;100.57;18.27;;;1.10;99.90;;;;;;5010921;28;20210;-79
2021/12/19 08:08:53;;;;;;;131.20;18.80;;;1.10;99.90;;;;;;5025589;28;20192;-78
2021/12/19 08:14:05;;;;;;;108.75;20.35;;;1.10;99.90;;;;;;5011171;28;20256;-79
2021/12/19 08:16:30;;;;;;;125.13;19.13;;;1.10;99.90;;;;;;5010292;28;20257;-78
2021/12/19 08:18:56;;;;;;;136.03;18.83;;;1.10;99.90;;;;;;5026096;28;20189;-78
2021/12/19 08:21:22;;;;;;;114.00;18.23;;;1.00;99.90;;;;;;5009643;28;20183;-78
2021/12/19 08:23:47;;;;;;;112.47;19.77;;;1.10;99.90;;;;;;5008782;28;20215;-77
2021/12/19 08:26:13;;;;;;;193.70;20.70;;;1.10;99.90;;;;;;5008717;28;20305;-77
2021/12/19 08:28:39;;;;;;;153.47;18.30;;;1.10;99.90;;;;;;5007499;28;20209;-77
2021/12/19 08:31:05;;;;;;;148.77;19.10;;;1.10;99.90;;;;;;4991124;28;20413;-78
2021/12/19 08:33:31;;;;;;;110.77;16.80;;;1.10;99.90;;;;;;5008429;28;20280;-77
2021/12/19 08:35:57;;;;;;;71.20;19.08;;;1.10;99.90;;;;;;5023353;28;20437;-77
2021/12/19 08:38:23;;;;;;;181.23;21.13;;;1.10;99.90;;;;;;5008174;28;20221;-78
2021/12/19 08:40:51;;;;;;;114.77;18.00;;;1.10;99.90;;;;;;5008603;28;20652;-78
2021/12/19 08:43:18;;;;;;;68.38;18.42;;;1.20;99.90;;;;;;5007974;28;20281;-78
2021/12/19 08:45:43;;;;;;;40.60;14.93;;;1.20;99.90;;;;;;5008375;28;20186;-78
2021/12/19 08:48:09;;;;;;;109.27;15.80;;;1.20;99.90;;;;;;5007390;28;20264;-78
2021/12/19 08:50:36;;;;;;;69.93;15.03;;;1.10;99.90;;;;;;5009294;28;20543;-76
2021/12/19 08:53:02;;;;;;;120.82;15.07;;;1.10;99.90;;;;;;5009494;28;20468;-78
2021/12/19 08:55:27;;;;;;;148.33;16.03;;;1.00;99.90;;;;;;5008710;28;20611;-76
2021/12/19 08:57:53;;;;;;;67.83;13.73;;;0.60;99.90;;;;;;5008392;28;20440;-78
2021/12/19 09:00:19;;;;;;;71.87;15.20;;;0.60;99.90;;;;;;5009499;28;20233;-78
2021/12/19 09:02:47;;;;;;;155.82;18.58;;;0.80;99.90;;;;;;5011635;28;20210;-78
2021/12/19 09:05:13;;;;;;;116.35;16.48;;;0.90;99.90;;;;;;5013800;28;20184;-76
2021/12/19 09:07:39;;;;;;;126.72;17.63;;;0.90;99.90;;;;;;5011707;28;20632;-78
2021/12/19 09:10:07;;;;;;;88.40;16.37;;;0.90;99.90;;;;;;5012097;28;20186;-78
2021/12/19 09:12:33;;;;;;;127.82;18.95;;;0.90;99.90;;;;;;5011137;28;20780;-78
2021/12/19 09:14:58;;;;;;;76.47;17.03;;;1.00;99.90;;;;;;5009893;28;20357;-78
2021/12/19 09:17:24;;;;;;;80.93;16.40;;;1.00;99.90;;;;;;5011647;28;20488;-78
2021/12/19 09:19:50;;;;;;;150.53;20.40;;;1.10;99.90;;;;;;5012546;28;20558;-78
2021/12/19 09:22:17;;;;;;;107.60;18.33;;;1.10;99.90;;;;;;5010973;28;20186;-78
2021/12/19 09:24:43;;;;;;;156.00;18.95;;;1.20;99.90;;;;;;5010988;28;20226;-78
2021/12/19 09:27:09;;;;;;;103.90;27.47;;;1.10;99.90;;;;;;5010602;28;20254;-78
2021/12/19 09:29:35;;;;;;;95.38;19.60;;;1.20;99.90;;;;;;5010657;28;20231;-78
2021/12/19 09:32:02;;;;;;;90.90;15.60;;;1.30;99.90;;;;;;5008937;28;20238;-78
2021/12/19 09:34:28;;;;;;;57.15;15.55;;;1.30;99.90;;;;;;5008880;28;20221;-77
2021/12/19 09:36:55;;;;;;;38.20;15.18;;;1.30;99.90;;;;;;5010243;28;20207;-75
2021/12/19 09:39:21;;;;;;;67.40;17.58;;;1.30;99.90;;;;;;5010828;28;20640;-77
2021/12/19 09:41:52;;;;;;;138.63;18.60;;;1.40;99.90;;;;;;5011305;28;20208;-78
2021/12/19 09:44:18;;;;;;;122.18;20.90;;;1.40;99.90;;;;;;5026228;28;20198;-77
2021/12/19 09:46:45;;;;;;;129.60;18.55;;;1.40;99.90;;;;;;5010873;28;20711;-78
2021/12/19 09:49:13;;;;;;;137.57;19.48;;;1.40;99.90;;;;;;5010937;28;20182;-77
2021/12/19 09:51:40;;;;;;;98.38;20.90;;;1.30;99.90;;;;;;5010860;28;20198;-78
2021/12/19 09:54:07;;;;;;;64.40;18.83;;;1.30;99.90;;;;;;5010745;28;20213;-78
2021/12/19 09:56:34;;;;;;;127.95;22.08;;;1.30;99.90;;;;;;5011485;28;20766;-77
2021/12/19 09:59:11;;;;;;;80.30;18.45;;;1.30;99.90;;;;;;5009547;28;20181;-78
2021/12/19 10:01:37;;;;;;;140.95;18.67;;;1.20;99.90;;;;;;5010703;28;20175;-78
2021/12/19 10:04:04;;;;;;;53.25;15.95;;;1.20;99.90;;;;;;5010480;28;20191;-78
2021/12/19 10:06:31;;;;;;;101.43;17.52;;;1.20;99.90;;;;;;5010518;28;20205;-78
2021/12/19 10:09:19;;;;;;;69.85;19.13;;;1.20;99.90;;;;;;5011192;28;20271;-77
2021/12/19 10:14:25;;;;;;;72.72;20.63;;;1.30;99.90;;;;;;5010423;28;20282;-78
2021/12/19 10:16:51;;;;;;;122.75;19.40;;;1.30;99.90;;;;;;5011099;28;20203;-78
2021/12/19 10:19:17;;;;;;;47.28;16.98;;;1.30;99.90;;;;;;5025837;28;20220;-79
2021/12/19 10:21:42;;;;;;;109.23;17.60;;;1.30;99.90;;;;;;5011268;28;20214;-76
2021/12/19 10:24:10;;;;;;;61.77;17.87;;;1.30;99.90;;;;;;5010570;28;20276;-77
2021/12/19 10:26:41;;;;;;;62.90;16.80;;;1.40;99.90;;;;;;5010094;28;20198;-78
2021/12/19 10:29:07;;;;;;;89.15;18.88;;;1.30;99.90;;;;;;5008956;28;20294;-78
2021/12/19 10:31:33;;;;;;;119.10;17.45;;;1.20;99.90;;;;;;5025118;28;20214;-79
2021/12/19 10:34:16;;;;;;;71.23;16.77;;;1.30;99.90;;;;;;5009971;28;20707;-78
2021/12/19 10:36:43;;;;;;;63.10;16.33;;;1.30;99.90;;;;;;5009935;28;20199;-78
2021/12/19 10:39:14;;;;;;;96.43;16.20;;;1.40;99.90;;;;;;5010013;28;20191;-77
2021/12/19 10:41:42;;;;;;;112.15;18.48;;;1.30;99.90;;;;;;5010002;28;20163;-77
2021/12/19 10:45:29;;;;;;;64.03;16.63;;;1.40;99.90;;;;;;5010398;28;20186;-78
2021/12/19 10:46:54;;;;;;;87.03;18.35;;;1.40;99.90;;;;;;5009449;28;20276;-78
2021/12/19 10:49:30;;;;;;;55.05;15.73;;;1.50;99.90;;;;;;5009866;28;20750;-78
2021/12/19 10:52:01;;;;;;;48.25;16.85;;;1.60;99.90;;;;;;5008861;28;20201;-76
2021/12/19 10:54:30;;;;;;;48.75;15.30;;;1.60;99.90;;;;;;5024583;28;20222;-78
2021/12/19 10:57:06;;;;;;;55.60;14.65;;;1.70;99.90;;;;;;5010688;28;20223;-78
2021/12/19 10:59:32;;;;;;;44.38;13.77;;;1.70;99.90;;;;;;5008456;28;20191;-78
2021/12/19 11:01:58;;;;;;;88.60;16.87;;;1.70;99.90;;;;;;5009422;28;20194;-78
2021/12/19 11:04:24;;;;;;;64.65;15.02;;;1.80;99.90;;;;;;5009288;28;20243;-79
2021/12/19 11:06:56;;;;;;;58.43;15.27;;;1.80;99.90;;;;;;5011107;28;20212;-77
2021/12/19 11:09:31;;;;;;;54.80;15.77;;;1.70;99.90;;;;;;5010476;28;20221;-78
2021/12/19 11:11:57;;;;;;;36.85;13.68;;;1.70;99.90;;;;;;4993298;28;20187;-78
2021/12/19 11:14:26;;;;;;;39.50;14.50;;;1.80;99.90;;;;;;5010524;28;20218;-78
2021/12/19 11:16:55;;;;;;;40.85;13.98;;;1.80;99.90;;;;;;5009143;28;20676;-78
2021/12/19 11:19:21;;;;;;;39.90;14.20;;;1.80;99.90;;;;;;5023845;28;20195;-78
2021/12/19 11:21:47;;;;;;;51.65;14.80;;;1.90;99.90;;;;;;5007303;28;20252;-78
2021/12/19 11:24:17;;;;;;;33.30;13.00;;;1.90;99.90;;;;;;5008444;28;20225;-77
2021/12/19 11:26:45;;;;;;;33.60;13.60;;;1.90;99.90;;;;;;5008398;28;20203;-77
2021/12/19 11:29:12;;;;;;;37.33;13.05;;;2.00;99.90;;;;;;5008194;28;20294;-77
2021/12/19 11:31:39;;;;;;;37.47;13.57;;;2.00;99.90;;;;;;5006937;28;20187;-78
2021/12/19 11:34:26;;;;;;;32.35;13.00;;;2.00;99.90;;;;;;4990741;28;20228;-78
2021/12/19 11:37:11;;;;;;;37.25;13.95;;;2.00;99.90;;;;;;5008510;28;20879;-78
2021/12/19 11:39:49;;;;;;;49.88;15.82;;;2.00;99.90;;;;;;5012934;28;20173;-78
2021/12/19 11:42:21;;;;;;;44.13;12.98;;;2.00;99.90;;;;;;5014272;28;20189;-78
2021/12/19 11:47:43;;;;;;;37.65;15.45;;;1.80;99.90;;;;;;5009719;28;20209;-77
2021/12/19 11:50:28;;;;;;;40.53;15.77;;;1.90;99.90;;;;;;5008152;28;20717;-78
2021/12/19 11:52:57;;;;;;;40.10;17.10;;;1.90;99.90;;;;;;5009540;28;20931;-76
2021/12/19 11:55:24;;;;;;;33.08;14.82;;;1.90;99.90;;;;;;5007496;28;20237;-78
2021/12/19 11:58:27;;;;;;;34.27;15.67;;;1.90;99.90;;;;;;5006503;28;20205;-77
2021/12/19 12:01:22;;;;;;;42.75;16.63;;;1.90;99.90;;;;;;4986082;28;20520;-77
2021/12/19 12:03:54;;;;;;;43.25;19.58;;;2.00;99.90;;;;;;5007768;28;20278;-78
2021/12/19 12:06:25;;;;;;;37.40;15.25;;;1.90;99.90;;;;;;5009477;28;20238;-78
2021/12/19 12:09:03;;;;;;;36.85;14.30;;;2.00;99.90;;;;;;5023881;28;20189;-78
2021/12/19 12:11:29;;;;;;;46.97;17.15;;;2.00;99.90;;;;;;5007855;28;21021;-78
2021/12/19 12:14:30;;;;;;;40.80;15.80;;;2.00;99.90;;;;;;5008095;28;20304;-78
2021/12/19 12:17:03;;;;;;;43.80;16.42;;;2.00;99.90;;;;;;5009247;28;20461;-78
2021/12/19 12:19:51;;;;;;;45.65;15.18;;;2.00;99.90;;;;;;5009589;28;20179;-79
2021/12/19 12:25:11;;;;;;;33.20;14.10;;;2.00;99.90;;;;;;5009494;28;20184;-77
2021/12/19 12:27:51;;;;;;;43.50;15.85;;;2.00;99.90;;;;;;5008373;28;20202;-77
2021/12/19 12:30:24;;;;;;;47.25;16.75;;;2.00;99.90;;;;;;5008080;28;20207;-78
2021/12/19 12:32:50;;;;;;;48.83;18.10;;;2.00;99.90;;;;;;5006811;28;20547;-77
2021/12/19 12:35:17;;;;;;;35.40;14.65;;;2.00;99.90;;;;;;5008509;28;20430;-77
2021/12/19 12:37:44;;;;;;;37.38;14.63;;;1.90;99.90;;;;;;5009775;28;20274;-77
2021/12/19 12:40:23;;;;;;;45.67;18.20;;;1.80;99.90;;;;;;5011996;28;20263;-77
2021/12/19 12:43:14;;;;;;;35.83;15.82;;;1.90;99.90;;;;;;5012030;28;20193;-77
2021/12/19 12:45:56;;;;;;;30.95;14.07;;;2.00;99.90;;;;;;5010103;28;20749;-77
2021/12/19 12:49:03;;;;;;;41.05;15.45;;;2.00;99.90;;;;;;5011966;28;20201;-77
2021/12/19 12:51:35;;;;;;;30.00;12.35;;;2.00;99.90;;;;;;4993695;28;20213;-77
2021/12/19 12:54:04;;;;;;;32.67;13.75;;;1.90;99.90;;;;;;5011624;28;20252;-78
2021/12/19 12:56:36;;;;;;;38.53;17.30;;;1.90;99.90;;;;;;5027451;28;20236;-78
2021/12/19 12:59:03;;;;;;;34.60;14.70;;;2.00;99.90;;;;;;5027203;28;20267;-77
2021/12/19 13:01:37;;;;;;;44.08;18.98;;;2.10;99.90;;;;;;5011948;28;20189;-77
2021/12/19 13:04:04;;;;;;;45.47;19.58;;;2.10;99.90;;;;;;5011835;28;20608;-77
2021/12/19 13:06:37;;;;;;;136.85;51.50;;;2.10;99.90;;;;;;5011659;28;20210;-77
2021/12/19 13:09:13;;;;;;;103.07;41.38;;;2.30;99.90;;;;;;5010909;28;20579;-78
2021/12/19 13:11:39;;;;;;;70.78;31.65;;;2.10;99.90;;;;;;5014143;28;20206;-78
2021/12/19 13:14:47;;;;;;;65.78;29.33;;;2.20;99.90;;;;;;5013587;28;20219;-78
2021/12/19 13:17:36;;;;;;;97.53;39.78;;;2.20;99.90;;;;;;4992623;28;20651;-77
2021/12/19 13:20:16;;;;;;;71.97;29.30;;;2.20;99.90;;;;;;5011911;28;20198;-76
2021/12/19 13:22:57;;;;;;;38.63;18.65;;;2.20;99.90;;;;;;5011499;28;20513;-77
2021/12/19 13:25:27;;;;;;;31.63;14.85;;;2.10;99.90;;;;;;5014612;28;20210;-77
2021/12/19 13:27:55;;;;;;;35.85;15.35;;;2.00;99.90;;;;;;5015002;28;20211;-77
2021/12/19 13:30:26;;;;;;;31.63;14.90;;;1.80;99.90;;;;;;5029859;28;20186;-77
2021/12/19 13:32:57;;;;;;;36.17;15.80;;;1.70;99.90;;;;;;5014896;28;20178;-77
2021/12/19 13:35:35;;;;;;;41.97;17.55;;;1.50;99.90;;;;;;5015153;28;20508;-77
2021/12/19 13:38:06;;;;;;;39.22;15.40;;;1.50;99.90;;;;;;5014900;28;20270;-77
2021/12/19 13:40:42;;;;;;;40.47;14.95;;;1.40;99.90;;;;;;5013510;28;20214;-77
2021/12/19 13:43:10;;;;;;;35.80;14.85;;;1.40;99.90;;;;;;5013893;28;20182;-78
2021/12/19 13:45:44;;;;;;;40.65;16.23;;;1.30;99.90;;;;;;5013170;28;20191;-75
2021/12/19 13:48:35;;;;;;;40.40;16.25;;;1.30;99.90;;;;;;5008723;28;20285;-76
2021/12/19 13:51:12;;;;;;;32.60;14.63;;;1.20;99.90;;;;;;5004926;28;20266;-75
2021/12/19 13:53:49;;;;;;;32.58;15.93;;;1.30;99.90;;;;;;5010299;28;20250;-75
2021/12/19 13:56:25;;;;;;;34.40;14.50;;;1.40;99.90;;;;;;5010203;28;20185;-75
2021/12/19 13:58:56;;;;;;;45.67;17.95;;;1.50;99.90;;;;;;5010477;28;20180;-76